sensor_id;sensor_type;location;lat;lon;timestamp;temperature;humidity
6792;DHT22;3433;48.730;9.108;2024-03-22T00:00:31;11.80;99.90
6792;DHT22;3433;48.730;9.108;2024-03-22T00:03:18;11.70;99.90
6792;DHT22;3433;48.730;9.108;2024-03-22T00:06:05;11.70;99.90
6792;DHT22;3433;48.730;9.108;2024-03-22T00:08:54;11.60;99.90
6792;DHT22;3433;48.730;9.108;2024-03-22T00:11:40;11.50;99.90
6792;DHT22;3433;48.730;9.108;2024-03-22T00:14:28;11.50;99.90
6792;DHT22;3433;48.730;9.108;2024-03-22T00:17:14;11.50;99.90
6792;DHT22;3433;48.730;9.108;2024-03-22T00:20:01;11.40;99.90
6792;DHT22;3433;48.730;9.108;2024-03-22T00:22:47;11.40;99.90
6792;DHT22;3433;48.730;9.108;2024-03-22T00:25:36;11.30;99.90
6792;DHT22;3433;48.730;9.108;2024-03-22T00:28:22;11.20;99.90
6792;DHT22;3433;48.730;9.108;2024-03-22T00:31:09;11.20;99.90
6792;DHT22;3433;48.730;9.108;2024-03-22T00:33:56;11.10;99.90
6792;DHT22;3433;48.730;9.108;2024-03-22T00:36:43;11.10;99.90
6792;DHT22;3433;48.730;9.108;2024-03-22T00:39:29;11.10;99.90
6792;DHT22;3433;48.730;9.108;2024-03-22T00:42:17;11.10;99.90
6792;DHT22;3433;48.730;9.108;2024-03-22T00:45:04;11.00;99.90
6792;DHT22;3433;48.730;9.108;2024-03-22T00:47:51;11.00;99.90
6792;DHT22;3433;48.730;9.108;2024-03-22T00:50:38;11.00;99.90
6792;DHT22;3433;48.730;9.108;2024-03-22T00:53:25;11.00;99.90
6792;DHT22;3433;48.730;9.108;2024-03-22T00:56:11;10.90;99.90
6792;DHT22;3433;48.730;9.108;2024-03-22T00:58:59;10.90;99.90
6792;DHT22;3433;48.730;9.108;2024-03-22T01:01:46;10.90;99.90
6792;DHT22;3433;48.730;9.108;2024-03-22T01:04:33;10.80;99.90
6792;DHT22;3433;48.730;9.108;2024-03-22T01:07:19;10.80;99.90
6792;DHT22;3433;48.730;9.108;2024-03-22T01:10:07;10.70;99.90
6792;DHT22;3433;48.730;9.108;2024-03-22T01:12:53;10.70;99.90
6792;DHT22;3433;48.730;9.108;2024-03-22T01:15:42;10.60;99.90
6792;DHT22;3433;48.730;9.108;2024-03-22T01:18:28;10.60;99.90
6792;DHT22;3433;48.730;9.108;2024-03-22T01:21:15;10.60;99.90
6792;DHT22;3433;48.730;9.108;2024-03-22T01:24:02;10.50;99.90
6792;DHT22;3433;48.730;9.108;2024-03-22T01:26:49;10.50;99.90
6792;DHT22;3433;48.730;9.108;2024-03-22T01:29:35;10.40;99.90
6792;DHT22;3433;48.730;9.108;2024-03-22T01:32:24;10.40;99.90
6792;DHT22;3433;48.730;9.108;2024-03-22T01:35:10;10.40;99.90
6792;DHT22;3433;48.730;9.108;2024-03-22T01:37:57;10.40;99.90
6792;DHT22;3433;48.730;9.108;2024-03-22T01:40:43;10.30;99.90
6792;DHT22;3433;48.730;9.108;2024-03-22T01:43:30;10.30;99.90
6792;DHT22;3433;48.730;9.108;2024-03-22T01:46:17;10.30;99.90
6792;DHT22;3433;48.730;9.108;2024-03-22T01:49:05;10.20;99.90
6792;DHT22;3433;48.730;9.108;2024-03-22T01:51:52;10.20;99.90
6792;DHT22;3433;48.730;9.108;2024-03-22T01:54:39;10.20;99.90
6792;DHT22;3433;48.730;9.108;2024-03-22T01:57:27;10.10;99.90
6792;DHT22;3433;48.730;9.108;2024-03-22T02:00:15;10.10;99.90
6792;DHT22;3433;48.730;9.108;2024-03-22T02:03:02;10.10;99.90
6792;DHT22;3433;48.730;9.108;2024-03-22T02:05:50;10.10;99.90
6792;DHT22;3433;48.730;9.108;2024-03-22T02:08:37;10.10;99.90
6792;DHT22;3433;48.730;9.108;2024-03-22T02:11:23;10.10;99.90
6792;DHT22;3433;48.730;9.108;2024-03-22T02:14:11;10.20;99.90
6792;DHT22;3433;48.730;9.108;2024-03-22T02:16:57;10.20;99.90
6792;DHT22;3433;48.730;9.108;2024-03-22T02:19:44;10.20;99.90
6792;DHT22;3433;48.730;9.108;2024-03-22T02:22:32;10.20;99.90
6792;DHT22;3433;48.730;9.108;2024-03-22T02:25:20;10.20;99.90
6792;DHT22;3433;48.730;9.108;2024-03-22T02:28:06;10.20;99.90
6792;DHT22;3433;48.730;9.108;2024-03-22T02:30:54;10.20;99.90
6792;DHT22;3433;48.730;9.108;2024-03-22T02:33:40;10.20;99.90
6792;DHT22;3433;48.730;9.108;2024-03-22T02:36:28;10.20;99.90
6792;DHT22;3433;48.730;9.108;2024-03-22T02:39:14;10.20;99.90
6792;DHT22;3433;48.730;9.108;2024-03-22T02:42:03;10.20;99.90
6792;DHT22;3433;48.730;9.108;2024-03-22T02:44:49;10.10;99.90
6792;DHT22;3433;48.730;9.108;2024-03-22T02:47:36;10.00;99.90
6792;DHT22;3433;48.730;9.108;2024-03-22T02:50:22;10.00;99.90
6792;DHT22;3433;48.730;9.108;2024-03-22T02:53:09;10.00;99.90
6792;DHT22;3433;48.730;9.108;2024-03-22T02:55:59;10.00;99.90
6792;DHT22;3433;48.730;9.108;2024-03-22T02:58:49;10.00;99.90
6792;DHT22;3433;48.730;9.108;2024-03-22T03:01:35;9.90;99.90
6792;DHT22;3433;48.730;9.108;2024-03-22T03:04:22;9.90;99.90
6792;DHT22;3433;48.730;9.108;2024-03-22T03:07:08;9.90;99.90
6792;DHT22;3433;48.730;9.108;2024-03-22T03:09:55;9.90;99.90
6792;DHT22;3433;48.730;9.108;2024-03-22T03:12:41;9.90;99.90
6792;DHT22;3433;48.730;9.108;2024-03-22T03:15:30;9.90;99.90
6792;DHT22;3433;48.730;9.108;2024-03-22T03:18:17;9.90;99.90
6792;DHT22;3433;48.730;9.108;2024-03-22T03:21:04;10.00;99.90
6792;DHT22;3433;48.730;9.108;2024-03-22T03:23:51;10.00;99.90
6792;DHT22;3433;48.730;9.108;2024-03-22T03:26:37;10.00;99.90
6792;DHT22;3433;48.730;9.108;2024-03-22T03:29:25;10.10;99.90
6792;DHT22;3433;48.730;9.108;2024-03-22T03:32:12;10.10;99.90
6792;DHT22;3433;48.730;9.108;2024-03-22T03:34:59;10.10;99.90
6792;DHT22;3433;48.730;9.108;2024-03-22T03:37:45;10.20;99.90
6792;DHT22;3433;48.730;9.108;2024-03-22T03:40:33;10.20;99.90
6792;DHT22;3433;48.730;9.108;2024-03-22T03:43:19;10.20;99.90
6792;DHT22;3433;48.730;9.108;2024-03-22T03:46:06;10.20;99.90
6792;DHT22;3433;48.730;9.108;2024-03-22T03:48:53;10.30;99.90
6792;DHT22;3433;48.730;9.108;2024-03-22T03:51:41;10.30;99.90
6792;DHT22;3433;48.730;9.108;2024-03-22T03:54:27;10.20;99.90
6792;DHT22;3433;48.730;9.108;2024-03-22T03:57:14;10.30;99.90
6792;DHT22;3433;48.730;9.108;2024-03-22T04:00:00;10.30;99.90
6792;DHT22;3433;48.730;9.108;2024-03-22T04:02:49;10.30;99.90
6792;DHT22;3433;48.730;9.108;2024-03-22T04:05:36;10.40;99.90
6792;DHT22;3433;48.730;9.108;2024-03-22T04:08:24;10.40;99.90
6792;DHT22;3433;48.730;9.108;2024-03-22T04:11:10;10.40;99.90
6792;DHT22;3433;48.730;9.108;2024-03-22T04:13:57;10.40;99.90
6792;DHT22;3433;48.730;9.108;2024-03-22T04:16:43;10.40;99.90
6792;DHT22;3433;48.730;9.108;2024-03-22T04:19:31;10.30;99.90
6792;DHT22;3433;48.730;9.108;2024-03-22T04:22:18;10.40;99.90
6792;DHT22;3433;48.730;9.108;2024-03-22T04:25:06;10.40;99.90
6792;DHT22;3433;48.730;9.108;2024-03-22T04:27:54;10.40;99.90
6792;DHT22;3433;48.730;9.108;2024-03-22T04:30:41;10.40;99.90
6792;DHT22;3433;48.730;9.108;2024-03-22T04:33:28;10.40;99.90
6792;DHT22;3433;48.730;9.108;2024-03-22T04:36:15;10.50;99.90
6792;DHT22;3433;48.730;9.108;2024-03-22T04:39:03;10.50;99.90
6792;DHT22;3433;48.730;9.108;2024-03-22T04:41:50;10.60;99.90
6792;DHT22;3433;48.730;9.108;2024-03-22T04:44:37;10.60;99.90
6792;DHT22;3433;48.730;9.108;2024-03-22T04:47:25;10.70;99.90
6792;DHT22;3433;48.730;9.108;2024-03-22T04:50:11;10.70;99.90
6792;DHT22;3433;48.730;9.108;2024-03-22T04:53:00;10.70;99.90
6792;DHT22;3433;48.730;9.108;2024-03-22T04:55:48;10.80;99.90
6792;DHT22;3433;48.730;9.108;2024-03-22T04:58:36;10.90;99.90
6792;DHT22;3433;48.730;9.108;2024-03-22T05:01:22;11.00;99.90
6792;DHT22;3433;48.730;9.108;2024-03-22T05:04:09;11.10;99.90
6792;DHT22;3433;48.730;9.108;2024-03-22T05:06:55;11.10;99.90
6792;DHT22;3433;48.730;9.108;2024-03-22T05:09:42;11.20;99.90
6792;DHT22;3433;48.730;9.108;2024-03-22T05:12:30;11.20;99.90
6792;DHT22;3433;48.730;9.108;2024-03-22T05:15:17;11.30;99.90
6792;DHT22;3433;48.730;9.108;2024-03-22T05:18:04;11.30;99.90
6792;DHT22;3433;48.730;9.108;2024-03-22T05:20:51;11.30;99.90
6792;DHT22;3433;48.730;9.108;2024-03-22T05:23:37;11.30;99.90
6792;DHT22;3433;48.730;9.108;2024-03-22T05:26:25;11.30;99.90
6792;DHT22;3433;48.730;9.108;2024-03-22T05:29:12;11.30;99.90
6792;DHT22;3433;48.730;9.108;2024-03-22T05:32:00;11.30;99.90
6792;DHT22;3433;48.730;9.108;2024-03-22T05:34:49;11.30;99.90
6792;DHT22;3433;48.730;9.108;2024-03-22T05:37:36;11.30;99.90
6792;DHT22;3433;48.730;9.108;2024-03-22T05:40:23;11.30;99.90
6792;DHT22;3433;48.730;9.108;2024-03-22T05:43:10;11.30;99.90
6792;DHT22;3433;48.730;9.108;2024-03-22T05:45:57;11.30;99.90
6792;DHT22;3433;48.730;9.108;2024-03-22T05:48:44;11.40;99.90
6792;DHT22;3433;48.730;9.108;2024-03-22T05:51:31;11.60;99.90
6792;DHT22;3433;48.730;9.108;2024-03-22T05:54:18;11.90;99.90
6792;DHT22;3433;48.730;9.108;2024-03-22T05:57:04;12.40;99.90
6792;DHT22;3433;48.730;9.108;2024-03-22T05:59:52;12.60;99.90
6792;DHT22;3433;48.730;9.108;2024-03-22T06:02:40;12.70;99.90
6792;DHT22;3433;48.730;9.108;2024-03-22T06:05:27;12.80;99.90
6792;DHT22;3433;48.730;9.108;2024-03-22T06:08:13;12.70;99.90
6792;DHT22;3433;48.730;9.108;2024-03-22T06:11:06;12.60;99.90
6792;DHT22;3433;48.730;9.108;2024-03-22T06:13:53;12.60;99.90
6792;DHT22;3433;48.730;9.108;2024-03-22T06:16:40;12.50;99.90
6792;DHT22;3433;48.730;9.108;2024-03-22T06:19:27;12.40;99.90
6792;DHT22;3433;48.730;9.108;2024-03-22T06:22:14;12.40;99.90
6792;DHT22;3433;48.730;9.108;2024-03-22T06:25:01;12.40;99.90
6792;DHT22;3433;48.730;9.108;2024-03-22T06:27:48;12.30;99.90
6792;DHT22;3433;48.730;9.108;2024-03-22T06:30:34;12.30;99.90
6792;DHT22;3433;48.730;9.108;2024-03-22T06:33:21;12.20;99.90
6792;DHT22;3433;48.730;9.108;2024-03-22T06:36:09;11.80;99.90
6792;DHT22;3433;48.730;9.108;2024-03-22T06:38:56;11.50;99.90
6792;DHT22;3433;48.730;9.108;2024-03-22T06:41:42;11.70;99.90
6792;DHT22;3433;48.730;9.108;2024-03-22T06:44:30;11.90;99.90
6792;DHT22;3433;48.730;9.108;2024-03-22T06:47:16;12.10;99.90
6792;DHT22;3433;48.730;9.108;2024-03-22T06:50:07;12.30;99.90
6792;DHT22;3433;48.730;9.108;2024-03-22T06:52:54;12.40;99.90
6792;DHT22;3433;48.730;9.108;2024-03-22T06:55:41;12.50;99.90
6792;DHT22;3433;48.730;9.108;2024-03-22T06:58:28;12.60;99.90
6792;DHT22;3433;48.730;9.108;2024-03-22T07:01:15;12.70;99.90
6792;DHT22;3433;48.730;9.108;2024-03-22T07:04:01;12.80;99.90
6792;DHT22;3433;48.730;9.108;2024-03-22T07:06:48;12.90;99.90
6792;DHT22;3433;48.730;9.108;2024-03-22T07:09:36;13.00;99.90
6792;DHT22;3433;48.730;9.108;2024-03-22T07:12:23;13.10;99.90
6792;DHT22;3433;48.730;9.108;2024-03-22T07:15:09;13.20;99.90
6792;DHT22;3433;48.730;9.108;2024-03-22T07:17:57;12.60;99.90
6792;DHT22;3433;48.730;9.108;2024-03-22T07:20:43;12.90;99.90
6792;DHT22;3433;48.730;9.108;2024-03-22T07:23:32;13.20;99.90
6792;DHT22;3433;48.730;9.108;2024-03-22T07:26:19;13.40;99.90
6792;DHT22;3433;48.730;9.108;2024-03-22T07:29:06;13.60;99.90
6792;DHT22;3433;48.730;9.108;2024-03-22T07:31:53;13.70;99.90
6792;DHT22;3433;48.730;9.108;2024-03-22T07:34:40;13.80;99.90
6792;DHT22;3433;48.730;9.108;2024-03-22T07:37:26;13.90;99.90
6792;DHT22;3433;48.730;9.108;2024-03-22T07:40:13;14.00;99.90
6792;DHT22;3433;48.730;9.108;2024-03-22T07:43:01;14.20;99.90
6792;DHT22;3433;48.730;9.108;2024-03-22T07:45:51;14.40;99.90
6792;DHT22;3433;48.730;9.108;2024-03-22T07:48:38;14.40;99.90
6792;DHT22;3433;48.730;9.108;2024-03-22T07:51:25;14.50;99.90
6792;DHT22;3433;48.730;9.108;2024-03-22T07:54:12;14.60;99.90
6792;DHT22;3433;48.730;9.108;2024-03-22T07:56:58;14.70;99.90
6792;DHT22;3433;48.730;9.108;2024-03-22T07:59:47;14.80;99.90
6792;DHT22;3433;48.730;9.108;2024-03-22T08:02:33;14.70;99.90
6792;DHT22;3433;48.730;9.108;2024-03-22T08:05:20;14.70;99.90
6792;DHT22;3433;48.730;9.108;2024-03-22T08:08:07;14.80;99.90
6792;DHT22;3433;48.730;9.108;2024-03-22T08:10:54;15.00;99.90
6792;DHT22;3433;48.730;9.108;2024-03-22T08:13:41;15.00;99.90
6792;DHT22;3433;48.730;9.108;2024-03-22T08:16:29;15.20;99.90
6792;DHT22;3433;48.730;9.108;2024-03-22T08:19:16;15.10;99.90
6792;DHT22;3433;48.730;9.108;2024-03-22T08:22:03;15.30;99.90
6792;DHT22;3433;48.730;9.108;2024-03-22T08:24:49;15.40;99.90
6792;DHT22;3433;48.730;9.108;2024-03-22T08:27:37;15.50;99.90
6792;DHT22;3433;48.730;9.108;2024-03-22T08:30:23;15.60;99.90
6792;DHT22;3433;48.730;9.108;2024-03-22T08:33:12;15.70;99.90
6792;DHT22;3433;48.730;9.108;2024-03-22T08:35:58;15.90;99.90
6792;DHT22;3433;48.730;9.108;2024-03-22T08:38:47;16.00;99.90
6792;DHT22;3433;48.730;9.108;2024-03-22T08:41:35;15.90;99.90
6792;DHT22;3433;48.730;9.108;2024-03-22T08:44:22;15.90;99.90
6792;DHT22;3433;48.730;9.108;2024-03-22T08:47:10;15.90;99.90
6792;DHT22;3433;48.730;9.108;2024-03-22T08:49:57;16.00;99.90
6792;DHT22;3433;48.730;9.108;2024-03-22T08:52:45;16.10;99.90
6792;DHT22;3433;48.730;9.108;2024-03-22T08:55:31;16.20;99.90
6792;DHT22;3433;48.730;9.108;2024-03-22T08:58:19;16.20;99.90
6792;DHT22;3433;48.730;9.108;2024-03-22T09:01:05;16.10;99.90
6792;DHT22;3433;48.730;9.108;2024-03-22T09:03:52;16.30;99.90
6792;DHT22;3433;48.730;9.108;2024-03-22T09:06:40;16.30;99.90
6792;DHT22;3433;48.730;9.108;2024-03-22T09:09:27;16.40;99.90
6792;DHT22;3433;48.730;9.108;2024-03-22T09:12:13;16.50;99.90
6792;DHT22;3433;48.730;9.108;2024-03-22T09:15:00;16.60;99.90
6792;DHT22;3433;48.730;9.108;2024-03-22T09:17:47;16.60;99.90
6792;DHT22;3433;48.730;9.108;2024-03-22T09:20:34;16.60;99.90
6792;DHT22;3433;48.730;9.108;2024-03-22T09:23:23;16.60;99.90
6792;DHT22;3433;48.730;9.108;2024-03-22T09:26:09;16.80;99.90
6792;DHT22;3433;48.730;9.108;2024-03-22T09:28:57;16.80;99.90
6792;DHT22;3433;48.730;9.108;2024-03-22T09:31:43;17.10;99.90
6792;DHT22;3433;48.730;9.108;2024-03-22T09:34:30;17.40;99.90
6792;DHT22;3433;48.730;9.108;2024-03-22T09:37:17;17.00;98.80
6792;DHT22;3433;48.730;9.108;2024-03-22T09:40:07;17.20;99.90
6792;DHT22;3433;48.730;9.108;2024-03-22T09:42:54;17.20;99.90
6792;DHT22;3433;48.730;9.108;2024-03-22T09:45:44;17.40;99.20
6792;DHT22;3433;48.730;9.108;2024-03-22T09:48:31;17.60;99.90
6792;DHT22;3433;48.730;9.108;2024-03-22T09:51:21;17.40;98.40
6792;DHT22;3433;48.730;9.108;2024-03-22T09:54:08;17.60;99.30
6792;DHT22;3433;48.730;9.108;2024-03-22T09:56:58;17.70;99.40
6792;DHT22;3433;48.730;9.108;2024-03-22T09:59:46;17.80;99.10
6792;DHT22;3433;48.730;9.108;2024-03-22T10:02:32;17.90;99.90
6792;DHT22;3433;48.730;9.108;2024-03-22T10:05:20;18.00;98.60
6792;DHT22;3433;48.730;9.108;2024-03-22T10:08:07;18.00;97.70
6792;DHT22;3433;48.730;9.108;2024-03-22T10:10:54;18.40;98.50
6792;DHT22;3433;48.730;9.108;2024-03-22T10:13:41;18.20;96.60
6792;DHT22;3433;48.730;9.108;2024-03-22T10:16:33;18.30;98.60
6792;DHT22;3433;48.730;9.108;2024-03-22T10:19:20;18.60;98.60
6792;DHT22;3433;48.730;9.108;2024-03-22T10:22:07;18.50;98.00
6792;DHT22;3433;48.730;9.108;2024-03-22T10:24:53;18.70;99.40
6792;DHT22;3433;48.730;9.108;2024-03-22T10:27:41;18.80;99.90
6792;DHT22;3433;48.730;9.108;2024-03-22T10:30:29;18.70;96.90
6792;DHT22;3433;48.730;9.108;2024-03-22T10:33:18;18.50;97.00
6792;DHT22;3433;48.730;9.108;2024-03-22T10:36:06;18.50;97.40
6792;DHT22;3433;48.730;9.108;2024-03-22T10:38:54;18.70;99.20
6792;DHT22;3433;48.730;9.108;2024-03-22T10:41:41;18.90;99.50
6792;DHT22;3433;48.730;9.108;2024-03-22T10:44:28;19.10;98.70
6792;DHT22;3433;48.730;9.108;2024-03-22T10:47:17;19.20;99.50
6792;DHT22;3433;48.730;9.108;2024-03-22T10:50:07;19.10;99.40
6792;DHT22;3433;48.730;9.108;2024-03-22T10:52:57;19.20;99.60
6792;DHT22;3433;48.730;9.108;2024-03-22T10:55:47;19.10;97.00
6792;DHT22;3433;48.730;9.108;2024-03-22T10:58:35;19.00;96.50
6792;DHT22;3433;48.730;9.108;2024-03-22T11:01:26;19.10;97.70
6792;DHT22;3433;48.730;9.108;2024-03-22T11:04:17;19.20;96.50
6792;DHT22;3433;48.730;9.108;2024-03-22T11:07:05;19.30;98.50
6792;DHT22;3433;48.730;9.108;2024-03-22T11:09:56;19.50;97.30
6792;DHT22;3433;48.730;9.108;2024-03-22T11:12:45;19.00;93.30
6792;DHT22;3433;48.730;9.108;2024-03-22T11:15:34;18.60;94.80
6792;DHT22;3433;48.730;9.108;2024-03-22T11:18:21;18.70;94.90
6792;DHT22;3433;48.730;9.108;2024-03-22T11:21:09;18.80;96.10
6792;DHT22;3433;48.730;9.108;2024-03-22T11:23:55;19.00;94.40
6792;DHT22;3433;48.730;9.108;2024-03-22T11:26:42;19.00;97.70
6792;DHT22;3433;48.730;9.108;2024-03-22T11:29:30;19.20;95.00
6792;DHT22;3433;48.730;9.108;2024-03-22T11:32:17;19.40;96.10
6792;DHT22;3433;48.730;9.108;2024-03-22T11:35:04;19.20;94.40
6792;DHT22;3433;48.730;9.108;2024-03-22T11:37:53;19.50;96.30
6792;DHT22;3433;48.730;9.108;2024-03-22T11:40:40;19.40;93.90
6792;DHT22;3433;48.730;9.108;2024-03-22T11:43:27;19.40;94.00
6792;DHT22;3433;48.730;9.108;2024-03-22T11:46:14;19.60;96.30
6792;DHT22;3433;48.730;9.108;2024-03-22T11:49:02;19.50;93.30
6792;DHT22;3433;48.730;9.108;2024-03-22T11:51:48;19.10;94.30
6792;DHT22;3433;48.730;9.108;2024-03-22T11:54:39;19.30;94.20
6792;DHT22;3433;48.730;9.108;2024-03-22T11:57:26;19.30;92.90
6792;DHT22;3433;48.730;9.108;2024-03-22T12:00:13;19.40;94.60
6792;DHT22;3433;48.730;9.108;2024-03-22T12:03:02;19.60;95.70
6792;DHT22;3433;48.730;9.108;2024-03-22T12:05:49;19.50;94.10
6792;DHT22;3433;48.730;9.108;2024-03-22T12:08:37;19.40;94.80
6792;DHT22;3433;48.730;9.108;2024-03-22T12:11:25;19.50;94.90
6792;DHT22;3433;48.730;9.108;2024-03-22T12:14:12;19.40;93.90
6792;DHT22;3433;48.730;9.108;2024-03-22T12:16:59;19.20;93.90
6792;DHT22;3433;48.730;9.108;2024-03-22T12:19:46;19.20;93.80
6792;DHT22;3433;48.730;9.108;2024-03-22T12:22:33;19.30;94.90
6792;DHT22;3433;48.730;9.108;2024-03-22T12:25:20;19.40;93.90
6792;DHT22;3433;48.730;9.108;2024-03-22T12:28:07;19.40;96.20
6792;DHT22;3433;48.730;9.108;2024-03-22T12:30:55;19.50;95.90
6792;DHT22;3433;48.730;9.108;2024-03-22T12:33:41;19.50;95.00
6792;DHT22;3433;48.730;9.108;2024-03-22T12:36:28;19.60;96.30
6792;DHT22;3433;48.730;9.108;2024-03-22T12:39:14;19.30;93.00
6792;DHT22;3433;48.730;9.108;2024-03-22T12:42:02;19.40;93.80
6792;DHT22;3433;48.730;9.108;2024-03-22T12:44:51;19.20;92.80
6792;DHT22;3433;48.730;9.108;2024-03-22T12:47:37;19.30;94.70
6792;DHT22;3433;48.730;9.108;2024-03-22T12:50:25;19.60;94.60
6792;DHT22;3433;48.730;9.108;2024-03-22T12:53:12;19.00;93.40
6792;DHT22;3433;48.730;9.108;2024-03-22T12:55:59;18.80;92.50
6792;DHT22;3433;48.730;9.108;2024-03-22T12:58:46;18.90;93.50
6792;DHT22;3433;48.730;9.108;2024-03-22T13:01:35;18.70;94.00
6792;DHT22;3433;48.730;9.108;2024-03-22T13:04:22;18.80;95.10
6792;DHT22;3433;48.730;9.108;2024-03-22T13:07:10;18.90;94.80
6792;DHT22;3433;48.730;9.108;2024-03-22T13:09:56;18.50;93.50
6792;DHT22;3433;48.730;9.108;2024-03-22T13:12:43;18.70;94.40
6792;DHT22;3433;48.730;9.108;2024-03-22T13:15:31;18.80;94.80
6792;DHT22;3433;48.730;9.108;2024-03-22T13:18:19;19.20;95.10
6792;DHT22;3433;48.730;9.108;2024-03-22T13:21:06;19.30;95.50
6792;DHT22;3433;48.730;9.108;2024-03-22T13:23:53;19.40;93.60
6792;DHT22;3433;48.730;9.108;2024-03-22T13:26:40;19.40;93.40
6792;DHT22;3433;48.730;9.108;2024-03-22T13:29:26;19.60;95.10
6792;DHT22;3433;48.730;9.108;2024-03-22T13:32:13;19.70;93.20
6792;DHT22;3433;48.730;9.108;2024-03-22T13:35:01;19.60;92.10
6792;DHT22;3433;48.730;9.108;2024-03-22T13:37:48;19.60;92.80
6792;DHT22;3433;48.730;9.108;2024-03-22T13:40:34;19.70;95.30
6792;DHT22;3433;48.730;9.108;2024-03-22T13:43:22;20.00;94.40
6792;DHT22;3433;48.730;9.108;2024-03-22T13:46:08;20.10;95.10
6792;DHT22;3433;48.730;9.108;2024-03-22T13:48:58;20.00;94.30
6792;DHT22;3433;48.730;9.108;2024-03-22T13:51:46;20.10;94.10
6792;DHT22;3433;48.730;9.108;2024-03-22T13:54:33;20.10;94.20
6792;DHT22;3433;48.730;9.108;2024-03-22T13:57:20;20.10;93.00
6792;DHT22;3433;48.730;9.108;2024-03-22T14:00:08;20.10;94.60
6792;DHT22;3433;48.730;9.108;2024-03-22T14:02:57;20.10;91.90
6792;DHT22;3433;48.730;9.108;2024-03-22T14:05:44;20.20;93.80
6792;DHT22;3433;48.730;9.108;2024-03-22T14:08:32;20.20;92.20
6792;DHT22;3433;48.730;9.108;2024-03-22T14:11:19;20.10;92.10
6792;DHT22;3433;48.730;9.108;2024-03-22T14:14:05;20.20;92.10
6792;DHT22;3433;48.730;9.108;2024-03-22T14:16:53;19.80;91.90
6792;DHT22;3433;48.730;9.108;2024-03-22T14:19:40;20.10;93.60
6792;DHT22;3433;48.730;9.108;2024-03-22T14:22:27;20.20;94.20
6792;DHT22;3433;48.730;9.108;2024-03-22T14:25:15;20.20;93.00
6792;DHT22;3433;48.730;9.108;2024-03-22T14:28:02;20.20;92.40
6792;DHT22;3433;48.730;9.108;2024-03-22T14:30:49;20.10;93.30
6792;DHT22;3433;48.730;9.108;2024-03-22T14:33:36;20.20;93.40
6792;DHT22;3433;48.730;9.108;2024-03-22T14:36:22;20.10;93.80
6792;DHT22;3433;48.730;9.108;2024-03-22T14:39:09;20.20;94.10
6792;DHT22;3433;48.730;9.108;2024-03-22T14:41:58;20.00;94.20
6792;DHT22;3433;48.730;9.108;2024-03-22T14:44:44;20.20;94.50
6792;DHT22;3433;48.730;9.108;2024-03-22T14:47:31;20.20;94.00
6792;DHT22;3433;48.730;9.108;2024-03-22T14:50:17;20.20;94.70
6792;DHT22;3433;48.730;9.108;2024-03-22T14:53:05;20.20;94.50
6792;DHT22;3433;48.730;9.108;2024-03-22T14:55:54;20.10;94.30
6792;DHT22;3433;48.730;9.108;2024-03-22T14:58:45;20.00;93.30
6792;DHT22;3433;48.730;9.108;2024-03-22T15:01:32;20.00;93.70
6792;DHT22;3433;48.730;9.108;2024-03-22T15:04:19;19.60;93.50
6792;DHT22;3433;48.730;9.108;2024-03-22T15:07:06;19.50;92.60
6792;DHT22;3433;48.730;9.108;2024-03-22T15:09:52;19.40;92.90
6792;DHT22;3433;48.730;9.108;2024-03-22T15:12:39;19.30;93.00
6792;DHT22;3433;48.730;9.108;2024-03-22T15:15:27;19.10;92.80
6792;DHT22;3433;48.730;9.108;2024-03-22T15:18:15;19.30;91.50
6792;DHT22;3433;48.730;9.108;2024-03-22T15:21:02;19.20;93.90
6792;DHT22;3433;48.730;9.108;2024-03-22T15:23:49;19.40;93.30
6792;DHT22;3433;48.730;9.108;2024-03-22T15:26:35;19.30;96.60
6792;DHT22;3433;48.730;9.108;2024-03-22T15:29:23;19.40;97.20
6792;DHT22;3433;48.730;9.108;2024-03-22T15:32:10;19.60;98.00
6792;DHT22;3433;48.730;9.108;2024-03-22T15:34:57;19.80;96.30
6792;DHT22;3433;48.730;9.108;2024-03-22T15:37:45;19.60;93.20
6792;DHT22;3433;48.730;9.108;2024-03-22T15:40:32;19.60;95.20
6792;DHT22;3433;48.730;9.108;2024-03-22T15:43:19;19.60;95.80
6792;DHT22;3433;48.730;9.108;2024-03-22T15:46:06;19.50;95.70
6792;DHT22;3433;48.730;9.108;2024-03-22T15:48:54;19.50;94.90
6792;DHT22;3433;48.730;9.108;2024-03-22T15:51:41;19.60;95.20
6792;DHT22;3433;48.730;9.108;2024-03-22T15:54:28;19.50;94.40
6792;DHT22;3433;48.730;9.108;2024-03-22T15:57:16;19.30;91.40
6792;DHT22;3433;48.730;9.108;2024-03-22T16:00:03;19.10;94.00
6792;DHT22;3433;48.730;9.108;2024-03-22T16:02:50;19.10;94.10
6792;DHT22;3433;48.730;9.108;2024-03-22T16:05:48;19.00;93.10
6792;DHT22;3433;48.730;9.108;2024-03-22T16:08:35;19.00;94.10
6792;DHT22;3433;48.730;9.108;2024-03-22T16:11:22;18.90;94.30
6792;DHT22;3433;48.730;9.108;2024-03-22T16:14:09;18.90;94.20
6792;DHT22;3433;48.730;9.108;2024-03-22T16:16:56;18.80;93.50
6792;DHT22;3433;48.730;9.108;2024-03-22T16:19:43;18.90;94.50
6792;DHT22;3433;48.730;9.108;2024-03-22T16:22:31;18.80;94.50
6792;DHT22;3433;48.730;9.108;2024-03-22T16:25:21;18.80;94.50
6792;DHT22;3433;48.730;9.108;2024-03-22T16:28:07;18.80;94.50
6792;DHT22;3433;48.730;9.108;2024-03-22T16:30:54;18.70;94.30
6792;DHT22;3433;48.730;9.108;2024-03-22T16:33:40;18.70;94.60
6792;DHT22;3433;48.730;9.108;2024-03-22T16:36:27;18.70;94.20
6792;DHT22;3433;48.730;9.108;2024-03-22T16:39:15;18.70;94.60
6792;DHT22;3433;48.730;9.108;2024-03-22T16:42:03;18.30;91.30
6792;DHT22;3433;48.730;9.108;2024-03-22T16:44:50;17.90;92.40
6792;DHT22;3433;48.730;9.108;2024-03-22T16:47:36;17.90;91.30
6792;DHT22;3433;48.730;9.108;2024-03-22T16:50:23;18.00;93.80
6792;DHT22;3433;48.730;9.108;2024-03-22T16:53:09;18.20;94.70
6792;DHT22;3433;48.730;9.108;2024-03-22T16:55:58;18.30;94.80
6792;DHT22;3433;48.730;9.108;2024-03-22T16:58:45;18.20;94.70
6792;DHT22;3433;48.730;9.108;2024-03-22T17:01:32;18.30;93.50
6792;DHT22;3433;48.730;9.108;2024-03-22T17:04:18;18.10;93.50
6792;DHT22;3433;48.730;9.108;2024-03-22T17:07:05;18.00;93.30
6792;DHT22;3433;48.730;9.108;2024-03-22T17:09:51;18.10;94.10
6792;DHT22;3433;48.730;9.108;2024-03-22T17:12:40;18.00;91.00
6792;DHT22;3433;48.730;9.108;2024-03-22T17:15:27;17.90;92.60
6792;DHT22;3433;48.730;9.108;2024-03-22T17:18:14;17.90;93.80
6792;DHT22;3433;48.730;9.108;2024-03-22T17:21:00;17.90;93.80
6792;DHT22;3433;48.730;9.108;2024-03-22T17:23:47;18.00;94.10
6792;DHT22;3433;48.730;9.108;2024-03-22T17:26:34;17.80;93.90
6792;DHT22;3433;48.730;9.108;2024-03-22T17:29:22;17.90;94.70
6792;DHT22;3433;48.730;9.108;2024-03-22T17:32:09;17.90;94.40
6792;DHT22;3433;48.730;9.108;2024-03-22T17:34:56;17.80;94.40
6792;DHT22;3433;48.730;9.108;2024-03-22T17:37:42;17.90;94.90
6792;DHT22;3433;48.730;9.108;2024-03-22T17:40:29;17.80;94.80
6792;DHT22;3433;48.730;9.108;2024-03-22T17:43:16;17.80;95.00
6792;DHT22;3433;48.730;9.108;2024-03-22T17:46:05;17.80;95.00
6792;DHT22;3433;48.730;9.108;2024-03-22T17:48:53;17.80;95.30
6792;DHT22;3433;48.730;9.108;2024-03-22T17:51:40;17.80;95.30
6792;DHT22;3433;48.730;9.108;2024-03-22T17:54:26;17.70;95.70
6792;DHT22;3433;48.730;9.108;2024-03-22T17:57:13;17.70;95.60
6792;DHT22;3433;48.730;9.108;2024-03-22T18:00:00;17.70;95.70
6792;DHT22;3433;48.730;9.108;2024-03-22T18:02:48;17.60;95.40
6792;DHT22;3433;48.730;9.108;2024-03-22T18:05:35;17.60;95.30
6792;DHT22;3433;48.730;9.108;2024-03-22T18:08:22;17.50;95.50
6792;DHT22;3433;48.730;9.108;2024-03-22T18:11:09;17.40;95.00